Time;durP1;ratioP1;P1;durP2;ratioP2;P2;SDS_P1;SDS_P2;PMS_P1;PMS_P2;Temp;Humidity;BMP_temperature;BMP_pressure;BME280_temperature;BME280_humidity;BME280_pressure;Samples;Min_cycle;Max_cycle;Signal;HPM_P1;HPM_P2
2023/05/06 00:00:52;;;;;;;20.05;11.32;;;;;;;17.38;100.00;100407.34;2099794;28;20110;-78
2023/05/06 00:02:13;;;;;;;18.15;10.52;;;;;;;17.37;100.00;100403.78;2098577;28;20530;-78
2023/05/06 00:03:35;;;;;;;20.48;10.63;;;;;;;17.36;100.00;100425.16;2105824;28;20063;-78
2023/05/06 00:04:57;;;;;;;22.80;10.27;;;;;;;17.35;100.00;100415.38;2103283;28;20036;-78
2023/05/06 00:06:20;;;;;;;21.05;10.23;;;;;;;17.32;100.00;100413.66;2105964;28;20428;-78
2023/05/06 00:07:41;;;;;;;20.42;10.60;;;;;;;17.29;100.00;100394.16;2094909;28;20048;-79
2023/05/06 00:09:03;;;;;;;17.63;9.40;;;;;;;17.27;100.00;100422.63;2094703;28;20068;-78
2023/05/06 00:10:26;;;;;;;16.00;9.55;;;;;;;17.20;100.00;100418.34;2092187;28;20091;-78
2023/05/06 00:11:49;;;;;;;20.95;10.15;;;;;;;17.12;100.00;100415.78;2108957;28;20047;-78
2023/05/06 00:13:11;;;;;;;20.35;10.82;;;;;;;17.03;100.00;100408.81;2105890;28;20048;-78
2023/05/06 00:14:32;;;;;;;18.90;9.98;;;;;;;16.97;100.00;100416.91;2103068;28;20390;-77
2023/05/06 00:15:55;;;;;;;20.70;9.73;;;;;;;16.96;100.00;100414.25;2094394;28;20075;-78
2023/05/06 00:17:16;;;;;;;21.30;10.32;;;;;;;16.94;100.00;100418.72;2108996;28;20051;-77
2023/05/06 00:18:39;;;;;;;20.65;10.80;;;;;;;16.90;100.00;100414.38;2105619;28;20113;-77
2023/05/06 00:20:02;;;;;;;23.50;11.40;;;;;;;16.89;100.00;100416.16;2097029;28;20113;-77
2023/05/06 00:21:25;;;;;;;19.67;10.73;;;;;;;16.89;100.00;100431.25;2094792;28;20082;-77
2023/05/06 00:22:47;;;;;;;23.13;10.95;;;;;;;16.89;100.00;100420.59;2094319;28;20048;-77
2023/05/06 00:24:10;;;;;;;24.27;11.30;;;;;;;16.87;100.00;100417.94;2093890;28;20067;-77
2023/05/06 00:25:32;;;;;;;20.73;10.50;;;;;;;16.87;100.00;100425.09;2098625;28;20051;-76
2023/05/06 00:26:55;;;;;;;23.40;11.00;;;;;;;16.88;100.00;100429.50;2094882;28;20041;-76
2023/05/06 00:28:17;;;;;;;22.75;10.43;;;;;;;16.89;100.00;100421.47;2097195;28;20109;-77
2023/05/06 00:29:39;;;;;;;23.95;10.10;;;;;;;16.90;100.00;100433.03;2091250;28;20048;-77
2023/05/06 00:31:01;;;;;;;23.98;10.18;;;;;;;16.82;100.00;100434.94;2091793;28;20048;-77
2023/05/06 00:32:22;;;;;;;27.38;10.95;;;;;;;16.74;100.00;100430.59;2091969;28;20048;-77
2023/05/06 00:33:45;;;;;;;23.17;10.27;;;;;;;16.71;100.00;100430.66;2103024;28;20056;-76
2023/05/06 00:35:07;;;;;;;22.50;10.10;;;;;;;16.68;100.00;100425.34;2102466;28;20396;-76
2023/05/06 00:36:30;;;;;;;28.85;10.32;;;;;;;16.69;100.00;100431.56;2093385;28;20167;-76
2023/05/06 00:37:58;;;;;;;27.67;10.77;;;;;;;16.69;100.00;100432.44;2100286;28;20066;-76
2023/05/06 00:39:20;;;;;;;23.30;10.50;;;;;;;16.70;100.00;100426.22;2095144;28;20053;-76
2023/05/06 00:40:42;;;;;;;28.83;10.73;;;;;;;16.71;100.00;100438.66;2094410;28;20094;-75
2023/05/06 00:42:05;;;;;;;27.90;11.55;;;;;;;16.69;100.00;100432.44;2100292;28;20582;-75
2023/05/06 00:43:27;;;;;;;24.98;10.43;;;;;;;16.66;100.00;100429.84;2102404;28;20093;-75
2023/05/06 00:44:50;;;;;;;25.30;9.73;;;;;;;16.57;100.00;100431.72;2094361;28;20071;-75
2023/05/06 00:46:15;;;;;;;25.20;10.70;;;;;;;16.51;100.00;100431.81;2086462;28;20083;-75
2023/05/06 00:47:38;;;;;;;25.58;8.90;;;;;;;16.48;100.00;100427.38;2094652;28;20056;-76
2023/05/06 00:49:00;;;;;;;30.08;10.43;;;;;;;16.46;100.00;100442.53;2094463;28;20036;-75
2023/05/06 00:50:22;;;;;;;30.63;11.45;;;;;;;16.45;100.00;100438.09;2102605;28;20067;-74
2023/05/06 00:51:44;;;;;;;25.83;11.35;;;;;;;16.43;100.00;100447.88;2088730;28;20053;-74
2023/05/06 00:53:09;;;;;;;25.63;11.13;;;;;;;16.45;100.00;100443.44;2083862;28;20082;-74
2023/05/06 00:54:32;;;;;;;30.05;12.05;;;;;;;16.47;100.00;100454.06;2084374;28;20102;-75
2023/05/06 00:55:53;;;;;;;25.67;11.75;;;;;;;16.51;100.00;100456.66;2091603;28;20510;-75
2023/05/06 00:57:17;;;;;;;34.83;12.77;;;;;;;16.51;100.00;100451.34;2085515;28;20060;-74
2023/05/06 00:58:38;;;;;;;29.48;11.40;;;;;;;16.51;100.00;100451.34;2088758;28;20099;-74
2023/05/06 01:00:01;;;;;;;27.95;12.13;;;;;;;16.50;100.00;100446.03;2099752;28;20043;-74
2023/05/06 01:01:27;;;;;;;29.33;12.00;;;;;;;16.50;100.00;100436.25;2096805;28;20402;-73
2023/05/06 01:02:49;;;;;;;32.25;11.05;;;;;;;16.50;100.00;100430.91;2094586;28;20524;-74
2023/05/06 01:04:12;;;;;;;29.58;12.25;;;;;;;16.47;100.00;100440.75;2077407;28;20065;-74
2023/05/06 01:05:48;;;;;;;30.00;12.05;;;;;;;16.45;100.00;100437.22;2092219;28;20127;-73
2023/05/06 01:07:24;;;;;;;27.40;12.43;;;;;;;16.42;100.00;100440.78;2096253;28;20048;-74
2023/05/06 01:08:57;;;;;;;27.25;12.45;;;;;;;16.42;100.00;100439.91;2087903;28;20041;-74
2023/05/06 01:10:26;;;;;;;32.05;12.52;;;;;;;16.43;100.00;100437.22;2103538;28;20101;-74
2023/05/06 01:11:54;;;;;;;27.92;10.82;;;;;;;16.44;100.00;100438.13;2088447;28;20033;-75
2023/05/06 01:13:23;;;;;;;27.27;11.43;;;;;;;16.40;100.00;100447.06;2093006;28;20425;-75
2023/05/06 01:14:54;;;;;;;28.60;10.80;;;;;;;16.41;100.00;100441.69;2096623;28;20048;-75
2023/05/06 01:16:20;;;;;;;25.23;10.88;;;;;;;16.43;100.00;100436.34;2084325;28;20045;-75
2023/05/06 01:17:44;;;;;;;24.83;11.77;;;;;;;16.42;100.00;100451.44;2092767;28;20056;-75
2023/05/06 01:19:11;;;;;;;21.50;9.80;;;;;;;16.42;100.00;100432.78;2102682;28;20068;-75
2023/05/06 01:20:33;;;;;;;26.55;9.73;;;;;;;16.41;100.00;100448.84;2104201;28;20040;-74
2023/05/06 01:21:59;;;;;;;27.65;9.55;;;;;;;16.42;100.00;100435.47;2102897;28;20040;-74
2023/05/06 01:23:22;;;;;;;25.33;9.82;;;;;;;16.44;100.00;100441.66;2094489;28;20061;-74
2023/05/06 01:24:47;;;;;;;22.48;9.75;;;;;;;16.46;100.00;100446.97;2099887;28;20083;-74
2023/05/06 01:26:08;;;;;;;30.23;11.23;;;;;;;16.47;100.00;100446.09;2096499;28;20140;-74
2023/05/06 01:27:30;;;;;;;29.65;10.32;;;;;;;16.47;100.00;100452.28;2098706;28;20055;-72
2023/05/06 01:28:54;;;;;;;25.27;10.63;;;;;;;16.43;100.00;100453.22;2102430;28;20718;-72
2023/05/06 01:30:18;;;;;;;25.02;9.77;;;;;;;16.40;100.00;100452.38;2098684;28;20064;-72
2023/05/06 01:31:47;;;;;;;28.08;9.95;;;;;;;16.34;100.00;100458.69;2091736;28;20096;-72
2023/05/06 01:33:14;;;;;;;23.75;8.85;;;;;;;16.23;100.00;100458.81;2094072;28;20060;-71
2023/05/06 01:34:43;;;;;;;26.15;9.32;;;;;;;16.11;100.00;100455.41;2103001;28;20048;-73
2023/05/06 01:36:12;;;;;;;26.58;8.93;;;;;;;15.99;100.00;100458.22;2094614;28;20099;-73
2023/05/06 01:37:42;;;;;;;26.83;9.45;;;;;;;15.93;100.00;100462.72;2093014;28;20061;-73
2023/05/06 01:39:11;;;;;;;18.83;8.25;;;;;;;15.97;100.00;100460.88;2103168;28;20040;-74
2023/05/06 01:40:35;;;;;;;22.10;8.90;;;;;;;15.97;100.00;100452.91;2103408;28;20051;-74
2023/05/06 01:41:59;;;;;;;25.05;9.50;;;;;;;15.99;100.00;100452.91;2095878;28;20053;-74
2023/05/06 01:43:23;;;;;;;19.27;8.75;;;;;;;16.03;100.00;100454.59;2102268;28;20039;-74
2023/05/06 01:44:49;;;;;;;23.00;8.00;;;;;;;16.10;100.00;100456.31;2098310;28;20076;-73
2023/05/06 01:46:14;;;;;;;23.10;7.90;;;;;;;16.15;100.00;100452.69;2101781;28;20044;-74
2023/05/06 01:47:39;;;;;;;23.55;9.27;;;;;;;16.19;100.00;100450.88;2086069;28;20079;-73
2023/05/06 01:49:04;;;;;;;26.30;9.00;;;;;;;16.25;100.00;100450.78;2095664;28;20424;-74
2023/05/06 01:50:27;;;;;;;25.10;9.32;;;;;;;16.27;100.00;100446.34;2090612;28;20413;-74
2023/05/06 01:51:51;;;;;;;22.85;9.35;;;;;;;16.31;100.00;100442.72;2098023;28;20044;-74
2023/05/06 01:53:12;;;;;;;26.10;9.20;;;;;;;16.33;100.00;100439.16;2093249;28;20051;-74
2023/05/06 01:54:36;;;;;;;27.88;9.60;;;;;;;16.29;100.00;100447.19;2093051;28;20094;-74
2023/05/06 01:55:57;;;;;;;29.70;9.27;;;;;;;16.28;100.00;100448.06;2093445;28;20044;-75
2023/05/06 01:57:20;;;;;;;30.23;10.18;;;;;;;16.29;100.00;100447.19;2102796;28;20578;-74
2023/05/06 01:58:43;;;;;;;27.63;8.73;;;;;;;16.26;100.00;100445.47;2082557;28;20057;-74
2023/05/06 02:00:05;;;;;;;26.98;9.32;;;;;;;16.21;100.00;100433.97;2105253;28;20043;-74
2023/05/06 02:01:34;;;;;;;25.10;9.57;;;;;;;16.11;100.00;100437.66;2109118;28;20055;-74
2023/05/06 02:02:56;;;;;;;27.88;9.70;;;;;;;16.08;100.00;100440.34;2104741;28;20093;-74
2023/05/06 02:04:19;;;;;;;31.25;10.60;;;;;;;16.07;100.00;100440.38;2093845;28;20159;-73
2023/05/06 02:05:40;;;;;;;24.50;10.68;;;;;;;16.07;100.00;100437.72;2090801;28;20431;-74
2023/05/06 02:07:03;;;;;;;26.95;9.85;;;;;;;16.05;100.00;100442.16;2090774;28;20049;-73
2023/05/06 02:08:24;;;;;;;32.08;10.65;;;;;;;16.03;100.00;100439.53;2107837;28;20060;-72
2023/05/06 02:09:48;;;;;;;30.67;10.75;;;;;;;16.05;100.00;100445.72;2096581;28;20656;-72
2023/05/06 02:11:10;;;;;;;22.55;10.73;;;;;;;16.08;100.00;100437.66;2093980;28;20535;-73
2023/05/06 02:12:33;;;;;;;34.05;12.18;;;;;;;16.10;100.00;100438.53;2091099;28;20459;-73
2023/05/06 02:13:54;;;;;;;26.52;10.65;;;;;;;16.14;100.00;100442.06;2091484;28;20040;-74
2023/05/06 02:15:16;;;;;;;37.10;11.70;;;;;;;16.16;100.00;100442.91;2101383;28;20063;-74
2023/05/06 02:16:39;;;;;;;30.45;10.48;;;;;;;16.16;100.00;100445.56;2093975;28;20552;-74
2023/05/06 02:18:00;;;;;;;28.83;10.18;;;;;;;16.08;100.00;100435.00;2093862;28;20165;-74
2023/05/06 02:19:23;;;;;;;31.33;12.00;;;;;;;15.98;100.00;100432.50;2082614;28;20568;-74
2023/05/06 02:20:44;;;;;;;29.00;10.88;;;;;;;15.94;100.00;100439.66;2083120;28;20086;-75
2023/05/06 02:22:11;;;;;;;32.10;11.73;;;;;;;15.95;100.00;100436.94;2092115;28;20455;-74
2023/05/06 02:23:33;;;;;;;30.95;12.15;;;;;;;15.98;100.00;100443.13;2093861;28;20496;-74
2023/05/06 02:24:56;;;;;;;32.65;11.27;;;;;;;15.99;100.00;100434.25;2097428;28;20036;-75
2023/05/06 02:26:19;;;;;;;27.38;10.27;;;;;;;15.94;100.00;100443.19;2093841;28;20085;-75
2023/05/06 02:27:43;;;;;;;26.67;10.60;;;;;;;15.95;100.00;100436.94;2099418;28;20671;-74
2023/05/06 02:29:05;;;;;;;32.20;10.52;;;;;;;16.00;100.00;100444.91;2093924;28;20060;-75
2023/05/06 02:30:29;;;;;;;32.00;11.20;;;;;;;16.05;100.00;100432.41;2099616;28;20032;-75
2023/05/06 02:31:50;;;;;;;30.13;10.85;;;;;;;16.09;100.00;100438.56;2093919;28;20144;-75
2023/05/06 02:33:13;;;;;;;32.72;12.50;;;;;;;16.04;100.00;100443.06;2099446;28;20147;-75
2023/05/06 02:34:34;;;;;;;29.60;10.52;;;;;;;16.04;100.00;100445.72;2096319;28;20105;-75
2023/05/06 02:35:57;;;;;;;32.92;11.18;;;;;;;16.07;100.00;100441.25;2092245;28;20087;-74
2023/05/06 02:37:19;;;;;;;25.15;10.45;;;;;;;16.10;100.00;100450.97;2091006;28;20053;-75
2023/05/06 02:38:42;;;;;;;29.65;11.00;;;;;;;16.10;100.00;100448.31;2099377;28;20040;-75
2023/05/06 02:40:07;;;;;;;28.95;10.18;;;;;;;16.10;100.00;100448.31;2093754;28;20420;-75
2023/05/06 02:41:30;;;;;;;28.48;10.65;;;;;;;16.06;100.00;100441.28;2093945;28;20036;-75
2023/05/06 02:42:52;;;;;;;25.83;9.73;;;;;;;16.07;100.00;100445.72;2099394;28;20147;-75
2023/05/06 02:44:13;;;;;;;28.88;9.65;;;;;;;16.07;100.00;100449.25;2110339;28;20055;-75
2023/05/06 02:45:36;;;;;;;22.50;9.55;;;;;;;16.07;100.00;100449.25;2096556;28;20118;-75
2023/05/06 02:46:57;;;;;;;20.52;8.15;;;;;;;16.08;100.00;100439.47;2102340;28;20051;-75
2023/05/06 02:48:19;;;;;;;26.92;10.68;;;;;;;16.05;100.00;100444.84;2095254;28;20424;-75
2023/05/06 02:49:42;;;;;;;31.52;10.48;;;;;;;16.04;100.00;100449.28;2103569;28;20539;-76
2023/05/06 02:51:05;;;;;;;24.00;9.82;;;;;;;16.06;100.00;100441.28;2111438;28;20438;-75
2023/05/06 02:52:26;;;;;;;28.35;11.23;;;;;;;16.09;100.00;100446.53;2096922;28;20102;-75
2023/05/06 02:53:49;;;;;;;27.90;11.05;;;;;;;16.10;100.00;100446.53;2098123;28;20044;-76
2023/05/06 02:55:12;;;;;;;27.45;10.57;;;;;;;16.11;100.00;100440.31;2097713;28;20045;-75
2023/05/06 02:56:35;;;;;;;23.73;10.35;;;;;;;16.13;100.00;100440.31;2097593;28;20052;-75
2023/05/06 02:57:56;;;;;;;27.85;10.90;;;;;;;16.11;100.00;100437.66;2097878;28;20110;-75
2023/05/06 02:59:19;;;;;;;28.20;9.77;;;;;;;16.11;100.00;100447.41;2095184;28;20082;-76
2023/05/06 03:00:41;;;;;;;29.98;10.27;;;;;;;16.04;100.00;100443.06;2097745;28;20270;-75
2023/05/06 03:02:03;;;;;;;27.02;10.07;;;;;;;16.01;100.00;100443.13;2095212;28;20063;-75
2023/05/06 03:03:24;;;;;;;31.95;10.13;;;;;;;16.02;100.00;100444.84;2094990;28;20045;-74
2023/05/06 03:04:47;;;;;;;29.40;9.93;;;;;;;16.02;100.00;100448.41;2086598;28;20385;-75
2023/05/06 03:06:08;;;;;;;29.35;11.63;;;;;;;16.02;100.00;100445.72;2102087;28;20426;-74
2023/05/06 03:07:31;;;;;;;30.00;11.77;;;;;;;16.03;100.00;100442.19;2095168;28;20053;-74
2023/05/06 03:08:54;;;;;;;26.65;10.27;;;;;;;15.99;100.00;100442.25;2101072;28;20036;-74
2023/05/06 03:10:17;;;;;;;27.88;10.65;;;;;;;15.98;100.00;100453.78;2086873;28;20386;-75
2023/05/06 03:11:39;;;;;;;29.30;10.98;;;;;;;16.01;100.00;100444.00;2095178;28;20107;-75
2023/05/06 03:13:02;;;;;;;33.13;12.45;;;;;;;16.02;100.00;100445.72;2079068;28;20049;-74
2023/05/06 03:14:23;;;;;;;26.95;10.23;;;;;;;15.97;100.00;100444.03;2084927;28;20447;-75
2023/05/06 03:15:52;;;;;;;25.55;10.18;;;;;;;15.88;100.00;100448.56;2092488;28;20059;-75
2023/05/06 03:17:14;;;;;;;30.98;11.65;;;;;;;15.88;100.00;100448.56;2081439;28;20061;-75
2023/05/06 03:18:36;;;;;;;32.28;10.48;;;;;;;15.93;100.00;100453.84;2090209;28;20413;-75
2023/05/06 03:19:58;;;;;;;25.48;10.02;;;;;;;15.94;100.00;100443.19;2086711;28;20040;-76
2023/05/06 03:21:20;;;;;;;25.80;10.25;;;;;;;15.92;100.00;100450.31;2084362;28;20512;-75
2023/05/06 03:22:43;;;;;;;31.35;10.60;;;;;;;15.89;100.00;100454.75;2084845;28;20057;-75
2023/05/06 03:24:06;;;;;;;29.05;9.75;;;;;;;15.83;100.00;100447.72;2084086;28;20588;-76
2023/05/06 03:25:30;;;;;;;23.55;9.18;;;;;;;15.82;100.00;100453.94;2088668;28;20040;-76
2023/05/06 03:26:53;;;;;;;25.00;8.95;;;;;;;15.80;100.00;100449.56;2086298;28;20106;-75
2023/05/06 03:28:15;;;;;;;30.58;8.95;;;;;;;15.73;100.00;100451.41;2092638;28;20409;-76
2023/05/06 03:29:40;;;;;;;29.50;9.00;;;;;;;15.75;100.00;100451.41;2087235;28;20083;-76
2023/05/06 03:31:03;;;;;;;26.40;9.07;;;;;;;15.74;100.00;100455.84;2084830;28;20045;-76
2023/05/06 03:32:26;;;;;;;27.20;8.85;;;;;;;15.75;100.00;100456.72;2084084;28;20382;-76
2023/05/06 03:33:48;;;;;;;21.15;7.88;;;;;;;15.77;100.00;100454.91;2084698;28;20409;-76
2023/05/06 03:35:11;;;;;;;25.08;8.13;;;;;;;15.74;100.00;100460.28;2084008;28;20049;-76
2023/05/06 03:36:34;;;;;;;27.30;8.73;;;;;;;15.77;100.00;100461.09;2092629;28;20040;-76
2023/05/06 03:37:56;;;;;;;27.65;7.82;;;;;;;15.78;100.00;100456.66;2078899;28;20072;-76
2023/05/06 03:39:21;;;;;;;28.95;10.48;;;;;;;15.79;100.00;100463.75;2090433;28;20040;-75
2023/05/06 03:40:45;;;;;;;36.47;9.93;;;;;;;15.81;100.00;100470.84;2086782;28;20061;-74
2023/05/06 03:42:08;;;;;;;27.63;9.27;;;;;;;15.81;100.00;100472.63;2086307;28;20063;-75
2023/05/06 03:43:30;;;;;;;36.40;10.88;;;;;;;15.79;100.00;100471.75;2089635;28;20044;-75
2023/05/06 03:44:54;;;;;;;28.17;10.30;;;;;;;15.79;100.00;100475.28;2087012;28;20804;-75
2023/05/06 03:46:18;;;;;;;25.48;9.18;;;;;;;15.80;100.00;100471.75;2086454;28;20148;-75
2023/05/06 03:47:40;;;;;;;27.58;8.73;;;;;;;15.76;100.00;100480.63;2086968;28;20461;-76
2023/05/06 03:49:03;;;;;;;28.25;10.10;;;;;;;15.71;100.00;100479.81;2084366;28;20079;-76
2023/05/06 03:50:25;;;;;;;29.10;8.57;;;;;;;15.72;100.00;100492.22;2086791;28;20057;-77
2023/05/06 03:51:49;;;;;;;30.65;8.38;;;;;;;15.75;100.00;100489.50;2092927;28;20090;-77
2023/05/06 03:53:12;;;;;;;28.05;9.60;;;;;;;15.73;100.00;100485.13;2078394;28;20104;-76
2023/05/06 03:54:37;;;;;;;27.92;9.38;;;;;;;15.75;100.00;100481.53;2090478;28;20630;-76
2023/05/06 03:56:02;;;;;;;28.20;9.77;;;;;;;15.75;100.00;100484.19;2087421;28;20726;-75
2023/05/06 03:57:24;;;;;;;27.65;8.90;;;;;;;15.71;100.00;100482.47;2091437;28;20052;-75
2023/05/06 03:58:47;;;;;;;30.55;10.13;;;;;;;15.66;100.00;100480.75;2088502;28;20485;-76
2023/05/06 04:00:11;;;;;;;31.05;9.32;;;;;;;15.66;100.00;100478.09;2107373;27;20047;-76
2023/05/06 04:01:43;;;;;;;28.77;9.20;;;;;;;15.67;100.00;100477.19;2114352;28;20089;-77
2023/05/06 04:03:05;;;;;;;29.15;9.05;;;;;;;15.72;100.00;100483.34;2087071;28;20513;-76
2023/05/06 04:04:36;;;;;;;33.35;9.43;;;;;;;15.74;100.00;100487.78;2086082;28;20053;-74
2023/05/06 04:05:59;;;;;;;41.15;11.73;;;;;;;15.68;100.00;100482.50;2091632;28;20040;-75
2023/05/06 04:07:21;;;;;;;28.10;10.40;;;;;;;15.61;100.00;100480.81;2094366;28;20075;-75
2023/05/06 04:08:43;;;;;;;34.55;10.82;;;;;;;15.59;100.00;100482.59;2105395;28;20084;-77
2023/05/06 04:10:06;;;;;;;35.63;10.48;;;;;;;15.62;100.00;100479.03;2089107;28;20041;-77
2023/05/06 04:11:31;;;;;;;35.33;10.93;;;;;;;15.65;100.00;100479.88;2095164;28;20040;-77
2023/05/06 04:12:54;;;;;;;29.50;11.32;;;;;;;15.67;100.00;100480.75;2086940;28;20091;-77
2023/05/06 04:14:21;;;;;;;33.17;10.32;;;;;;;15.70;100.00;100488.69;2104506;28;20040;-77
2023/05/06 04:15:44;;;;;;;34.75;10.95;;;;;;;15.70;100.00;100491.34;2091573;28;20094;-77
2023/05/06 04:17:12;;;;;;;32.90;11.80;;;;;;;15.69;100.00;100494.91;2095449;28;20091;-76
2023/05/06 04:18:33;;;;;;;33.38;10.27;;;;;;;15.66;100.00;100491.41;2097564;28;20511;-76
2023/05/06 04:20:05;;;;;;;29.98;9.73;;;;;;;15.63;100.00;100483.44;2109798;28;20059;-76
2023/05/06 04:21:28;;;;;;;30.95;10.50;;;;;;;15.62;100.00;100493.19;2103769;28;20044;-76
2023/05/06 04:22:56;;;;;;;24.23;9.30;;;;;;;15.63;100.00;100497.63;2110149;28;20047;-76
2023/05/06 04:24:20;;;;;;;31.20;9.50;;;;;;;15.61;100.00;100496.78;2111269;28;20101;-76
2023/05/06 04:25:43;;;;;;;32.40;10.70;;;;;;;15.58;100.00;100502.09;2106019;28;20048;-76
2023/05/06 04:27:06;;;;;;;32.13;11.00;;;;;;;15.59;100.00;100495.88;2093222;28;20044;-76
2023/05/06 04:28:28;;;;;;;37.78;12.07;;;;;;;15.62;100.00;100501.16;2098096;28;20284;-76
2023/05/06 04:29:51;;;;;;;35.90;10.68;;;;;;;15.66;100.00;100497.59;2100222;28;20148;-76
2023/05/06 04:31:14;;;;;;;34.00;10.45;;;;;;;15.71;100.00;100498.44;2103004;28;20068;-76
2023/05/06 04:32:40;;;;;;;32.72;9.75;;;;;;;15.74;100.00;100506.41;2101615;28;20040;-76
2023/05/06 04:34:03;;;;;;;37.67;10.35;;;;;;;15.75;100.00;100500.16;2094695;28;20103;-76
2023/05/06 04:35:25;;;;;;;27.85;9.82;;;;;;;15.75;100.00;100499.31;2099547;28;20044;-76
2023/05/06 04:36:53;;;;;;;28.00;9.95;;;;;;;15.75;100.00;100496.63;2094820;28;20087;-77
2023/05/06 04:38:36;;;;;;;29.35;9.32;;;;;;;15.74;100.00;100501.06;2105781;28;20139;-77
2023/05/06 04:40:00;;;;;;;30.52;10.57;;;;;;;15.78;100.00;100502.81;2094995;28;20044;-76
2023/05/06 04:41:23;;;;;;;33.35;9.75;;;;;;;15.82;100.00;100503.63;2091318;28;20515;-77
2023/05/06 04:42:46;;;;;;;33.60;9.90;;;;;;;15.83;100.00;100508.06;2100447;28;20139;-76
2023/05/06 04:44:13;;;;;;;28.30;9.85;;;;;;;15.82;100.00;100503.63;2101693;28;20824;-77
2023/05/06 04:45:38;;;;;;;31.45;10.02;;;;;;;15.80;100.00;100498.34;2097039;28;20067;-77
2023/05/06 04:47:00;;;;;;;31.38;10.00;;;;;;;15.81;100.00;100500.13;2086623;28;20037;-77
2023/05/06 04:48:23;;;;;;;34.75;11.02;;;;;;;15.81;100.00;100500.13;2086554;28;20107;-77
2023/05/06 04:49:46;;;;;;;37.70;11.38;;;;;;;15.85;100.00;100503.63;2083989;28;20502;-77
2023/05/06 04:51:09;;;;;;;28.58;10.15;;;;;;;15.86;100.00;100497.41;2100286;28;20048;-77
2023/05/06 04:52:32;;;;;;;34.53;11.18;;;;;;;15.88;100.00;100500.94;2089242;28;20067;-77
2023/05/06 04:53:53;;;;;;;33.80;11.52;;;;;;;15.88;100.00;100506.25;2083748;28;20048;-77
2023/05/06 04:55:16;;;;;;;32.92;10.00;;;;;;;15.90;100.00;100497.34;2091864;28;20079;-77
2023/05/06 04:56:42;;;;;;;30.17;9.95;;;;;;;15.91;100.00;100493.78;2101169;28;20063;-77
2023/05/06 04:58:08;;;;;;;33.67;11.10;;;;;;;15.94;100.00;100495.56;2098041;28;20043;-78
2023/05/06 04:59:30;;;;;;;36.50;12.32;;;;;;;15.98;100.00;100499.06;2100576;28;20139;-77
2023/05/06 05:00:53;;;;;;;40.33;11.75;;;;;;;15.98;100.00;100499.94;2097096;28;20048;-78
2023/05/06 05:02:14;;;;;;;39.78;10.00;;;;;;;16.01;100.00;100499.03;2092049;28;20055;-78
2023/05/06 05:03:38;;;;;;;33.60;10.60;;;;;;;16.03;100.00;100510.53;2091870;28;20400;-77
2023/05/06 05:05:00;;;;;;;34.38;9.35;;;;;;;16.05;100.00;100508.75;2092291;28;20458;-77
2023/05/06 05:06:23;;;;;;;31.48;10.25;;;;;;;16.00;100.00;100502.59;2091064;28;20519;-78
2023/05/06 05:07:45;;;;;;;34.22;10.35;;;;;;;15.98;100.00;100504.38;2091497;28;20049;-78
2023/05/06 05:09:09;;;;;;;33.42;11.05;;;;;;;15.98;100.00;100507.03;2086300;28;20535;-78
2023/05/06 05:10:34;;;;;;;29.58;9.77;;;;;;;15.93;100.00;100509.75;2094678;28;20080;-79
2023/05/06 05:11:56;;;;;;;32.42;9.85;;;;;;;15.94;100.00;100509.75;2086506;28;20105;-79
2023/05/06 05:13:21;;;;;;;29.05;10.20;;;;;;;15.99;100.00;100507.03;2086471;28;20049;-79
2023/05/06 05:14:46;;;;;;;28.90;9.52;;;;;;;16.01;100.00;100523.00;2084070;28;20557;-79
2023/05/06 05:16:08;;;;;;;31.08;9.73;;;;;;;15.99;100.00;100516.78;2086741;28;20134;-79
2023/05/06 05:17:32;;;;;;;31.33;10.38;;;;;;;15.98;100.00;100521.22;2084393;28;20057;-80
2023/05/06 05:18:55;;;;;;;35.35;10.40;;;;;;;15.99;100.00;100524.78;2085751;28;20058;-78
2023/05/06 05:20:20;;;;;;;34.88;10.30;;;;;;;16.01;100.00;100528.31;2087129;28;20055;-79
2023/05/06 05:21:43;;;;;;;38.30;11.10;;;;;;;16.04;100.00;100526.50;2083571;28;20049;-79
2023/05/06 05:23:07;;;;;;;38.85;11.43;;;;;;;16.07;100.00;100522.94;2092161;28;20439;-79
2023/05/06 05:24:28;;;;;;;29.63;10.10;;;;;;;16.09;100.00;100526.44;2090724;28;20595;-79
2023/05/06 05:25:52;;;;;;;28.50;9.82;;;;;;;16.10;100.00;100538.84;2086223;28;20524;-79
2023/05/06 05:27:14;;;;;;;32.90;9.37;;;;;;;16.08;100.00;100540.69;2094250;28;20514;-78
2023/05/06 05:28:38;;;;;;;29.33;9.88;;;;;;;16.05;100.00;100541.56;2094751;28;20330;-79
2023/05/06 05:29:59;;;;;;;35.03;9.90;;;;;;;16.06;100.00;100537.13;2094426;28;20077;-78
2023/05/06 05:31:22;;;;;;;34.15;11.13;;;;;;;16.06;100.00;100543.34;2088076;28;20686;-77
2023/05/06 05:32:43;;;;;;;30.67;10.80;;;;;;;16.08;100.00;100536.19;2083646;28;20544;-77
2023/05/06 05:34:07;;;;;;;32.22;10.32;;;;;;;16.12;100.00;100547.72;2082960;28;20041;-77
2023/05/06 05:35:29;;;;;;;33.53;10.85;;;;;;;16.14;100.00;100545.94;2091625;28;20524;-77
2023/05/06 05:36:51;;;;;;;33.67;10.73;;;;;;;16.14;100.00;100553.94;2094469;28;20488;-77
2023/05/06 05:38:14;;;;;;;40.05;10.85;;;;;;;16.12;100.00;100547.72;2091050;28;20053;-77
2023/05/06 05:39:35;;;;;;;34.13;10.60;;;;;;;16.11;100.00;100546.84;2085829;28;20414;-77
2023/05/06 05:40:58;;;;;;;31.77;11.02;;;;;;;16.12;100.00;100542.41;2091854;28;20079;-77
2023/05/06 05:42:20;;;;;;;34.40;10.55;;;;;;;16.14;100.00;100535.28;2087963;28;20044;-77
2023/05/06 05:43:44;;;;;;;;;;;;;;;16.15;100.00;100547.66;2094280;28;20552;-77
2023/05/06 05:45:08;;;;;;;36.72;10.48;;;;;;;16.12;100.00;100553.03;2085840;28;19924;-78
2023/05/06 05:46:31;;;;;;;30.92;10.57;;;;;;;16.13;100.00;100557.47;2091864;28;20511;-78
2023/05/06 05:47:52;;;;;;;28.98;10.75;;;;;;;16.14;100.00;100556.59;2085773;28;20048;-78
2023/05/06 05:49:15;;;;;;;28.35;10.73;;;;;;;16.18;100.00;100552.97;2094092;28;20049;-78
2023/05/06 05:50:38;;;;;;;35.65;10.90;;;;;;;16.25;100.00;100554.69;2095236;28;20087;-78
2023/05/06 05:52:00;;;;;;;32.72;10.18;;;;;;;16.30;100.00;100555.50;2093925;28;20073;-79
2023/05/06 05:53:24;;;;;;;25.85;9.70;;;;;;;16.33;100.00;100553.72;2096781;28;20532;-79
2023/05/06 05:54:49;;;;;;;35.03;9.85;;;;;;;16.39;100.00;100562.53;2098989;28;20064;-80
2023/05/06 05:56:11;;;;;;;30.17;9.27;;;;;;;16.47;100.00;100560.66;2088583;28;20045;-80
2023/05/06 05:57:34;;;;;;;28.23;9.77;;;;;;;16.52;100.00;100564.16;2075421;28;20050;-81
2023/05/06 05:58:58;;;;;;;25.63;9.05;;;;;;;16.54;100.00;100568.53;2094790;28;20052;-81
2023/05/06 06:00:22;;;;;;;26.80;9.07;;;;;;;16.56;100.00;100564.09;2094522;28;20576;-79
2023/05/06 06:01:49;;;;;;;25.98;9.10;;;;;;;16.56;100.00;100566.75;2087033;28;20029;-79
2023/05/06 06:03:12;;;;;;;25.90;9.23;;;;;;;16.63;100.00;100567.59;2099846;28;20048;-79
2023/05/06 06:04:34;;;;;;;27.25;8.98;;;;;;;16.70;100.00;100572.81;2088099;28;20057;-79
2023/05/06 06:05:57;;;;;;;24.38;9.13;;;;;;;16.74;100.00;100571.88;2086019;28;20072;-80
2023/05/06 06:07:20;;;;;;;27.75;8.88;;;;;;;16.77;100.00;100578.06;2083866;28;20045;-83
2023/05/06 06:08:43;;;;;;;24.42;8.25;;;;;;;16.78;100.00;100572.75;2086153;28;20052;-80
2023/05/06 06:10:06;;;;;;;24.70;8.10;;;;;;;16.82;100.00;100573.56;2083632;28;20119;-81
2023/05/06 06:11:28;;;;;;;30.80;9.68;;;;;;;16.84;100.00;100577.09;2083399;28;20539;-82
2023/05/06 06:12:51;;;;;;;32.10;8.20;;;;;;;16.85;100.00;100578.88;2083607;28;20139;-83
2023/05/06 06:14:20;;;;;;;31.50;9.68;;;;;;;16.81;100.00;100578.00;2093787;28;20059;-83
2023/05/06 06:15:45;;;;;;;34.10;9.63;;;;;;;16.77;100.00;100581.63;2086711;28;20604;-83
2023/05/06 06:17:08;;;;;;;30.77;9.15;;;;;;;16.74;100.00;100581.66;2092153;28;20455;-83